createdAt,value
2019-04-06T00:00:44.202Z,35.73
2019-04-06T00:01:27.590Z,34.70
2019-04-06T00:02:09.366Z,33.00
2019-04-06T00:02:46.784Z,35.70
2019-04-06T00:03:24.551Z,35.85
2019-04-06T00:04:04.552Z,33.87
2019-04-06T00:04:42.357Z,34.20
2019-04-06T00:05:20.261Z,35.50
2019-04-06T00:05:58.382Z,34.65
2019-04-06T00:06:36.648Z,33.30
2019-04-06T00:07:14.235Z,34.73
2019-04-06T00:07:52.563Z,33.28
2019-04-06T00:08:29.695Z,33.48
2019-04-06T00:09:08.520Z,35.23
2019-04-06T00:09:46.288Z,34.45
2019-04-06T00:10:24.048Z,35.45
2019-04-06T00:11:02.156Z,35.52
2019-04-06T00:11:40.093Z,34.53
2019-04-06T00:12:17.823Z,34.03
2019-04-06T00:12:55.667Z,32.88
2019-04-06T00:13:35.281Z,32.70
2019-04-06T00:14:12.710Z,33.92
2019-04-06T00:14:50.226Z,33.33
2019-04-06T00:15:27.669Z,34.20
2019-04-06T00:16:05.288Z,33.55
2019-04-06T00:16:43.393Z,33.70
2019-04-06T00:17:21.603Z,34.23
2019-04-06T00:17:59.196Z,34.27
2019-04-06T00:18:37.062Z,34.70
2019-04-06T00:19:14.510Z,35.70
2019-04-06T00:19:52.378Z,34.05
2019-04-06T00:20:30.124Z,35.92
2019-04-06T00:21:08.317Z,31.97
2019-04-06T00:21:52.355Z,32.98
2019-04-06T00:22:30.896Z,34.00
2019-04-06T00:23:11.697Z,31.57
2019-04-06T00:23:49.867Z,33.78
2019-04-06T00:24:27.590Z,31.90
2019-04-06T00:25:05.212Z,32.13
2019-04-06T00:25:44.659Z,32.42
2019-04-06T00:26:20.876Z,31.77
2019-04-06T00:26:58.592Z,32.80
2019-04-06T00:27:36.260Z,33.55
2019-04-06T00:28:13.999Z,31.87
2019-04-06T00:28:53.424Z,33.30
2019-04-06T00:29:30.963Z,32.15
2019-04-06T00:30:09.324Z,31.80
2019-04-06T00:31:02.923Z,32.03
2019-04-06T00:31:46.771Z,31.97
2019-04-06T00:32:30.981Z,30.30
2019-04-06T00:33:11.129Z,29.67
2019-04-06T00:33:48.939Z,30.88
2019-04-06T00:34:26.622Z,29.65
2019-04-06T00:35:04.690Z,28.75
2019-04-06T00:35:43.471Z,29.05
2019-04-06T00:36:21.075Z,29.98
2019-04-06T00:36:58.067Z,30.75
2019-04-06T00:37:36.136Z,29.77
2019-04-06T00:38:16.598Z,29.07
2019-04-06T00:38:54.019Z,29.48
2019-04-06T00:39:32.201Z,29.80
2019-04-06T00:40:10.357Z,29.98
2019-04-06T00:40:47.883Z,29.23
2019-04-06T00:41:25.212Z,29.30
2019-04-06T00:42:03.324Z,28.40
2019-04-06T00:42:40.979Z,28.10
2019-04-06T00:43:18.106Z,27.50
2019-04-06T00:43:55.633Z,29.23
2019-04-06T00:44:33.945Z,27.90
2019-04-06T00:45:11.479Z,29.00
2019-04-06T00:45:49.048Z,28.45
2019-04-06T00:46:29.319Z,28.65
2019-04-06T00:47:07.223Z,28.23
2019-04-06T00:47:45.037Z,28.02
2019-04-06T00:48:22.735Z,27.62
2019-04-06T00:48:59.985Z,27.60
2019-04-06T00:49:37.521Z,28.20
2019-04-06T00:50:14.849Z,26.93
2019-04-06T00:50:52.869Z,30.68
2019-04-06T00:51:30.040Z,27.70
2019-04-06T00:52:07.696Z,27.57
2019-04-06T00:52:45.227Z,25.97
2019-04-06T00:53:22.527Z,26.33
2019-04-06T00:53:59.749Z,27.50
2019-04-06T00:54:36.860Z,27.07
2019-04-06T00:55:14.682Z,26.93
2019-04-06T00:55:55.935Z,26.23
2019-04-06T00:56:30.983Z,26.70
2019-04-06T00:57:08.313Z,27.73
2019-04-06T00:57:46.193Z,27.52
2019-04-06T00:58:23.931Z,27.10
2019-04-06T00:59:01.225Z,26.03
2019-04-06T00:59:38.569Z,27.17
2019-04-06T01:00:16.848Z,27.25
2019-04-06T01:00:55.029Z,27.42
2019-04-06T01:01:33.155Z,28.00
2019-04-06T01:02:18.535Z,26.97
2019-04-06T01:03:00.561Z,27.62
2019-04-06T01:03:38.689Z,27.30
2019-04-06T01:04:16.101Z,28.65
2019-04-06T01:04:53.949Z,26.27
2019-04-06T01:05:35.250Z,26.15
2019-04-06T01:06:14.801Z,28.07
2019-04-06T01:06:52.619Z,27.50
2019-04-06T01:07:29.741Z,27.00
2019-04-06T01:08:09.012Z,27.82
2019-04-06T01:08:46.593Z,26.00
2019-04-06T01:09:24.378Z,26.80
2019-04-06T01:10:01.975Z,25.45
2019-04-06T01:10:39.732Z,27.67
2019-04-06T01:11:17.759Z,27.90
2019-04-06T01:11:55.219Z,28.20
2019-04-06T01:12:32.441Z,27.40
2019-04-06T01:13:12.559Z,26.93
2019-04-06T01:13:50.608Z,26.80
2019-04-06T01:14:28.112Z,28.13
2019-04-06T01:15:06.927Z,27.90
2019-04-06T01:15:44.388Z,27.27
2019-04-06T01:16:22.415Z,26.27
2019-04-06T01:17:00.028Z,26.70
2019-04-06T01:17:38.837Z,27.15
2019-04-06T01:18:16.831Z,27.65
2019-04-06T01:18:54.716Z,28.23
2019-04-06T01:19:36.036Z,28.90
2019-04-06T01:20:12.708Z,26.53
2019-04-06T01:20:50.454Z,28.00
2019-04-06T01:21:27.937Z,28.73
2019-04-06T01:22:06.358Z,27.57
2019-04-06T01:22:43.519Z,27.77
2019-04-06T01:23:20.899Z,28.10
2019-04-06T01:23:58.054Z,28.80
2019-04-06T01:24:35.949Z,28.65
2019-04-06T01:25:13.975Z,27.40
2019-04-06T01:25:51.789Z,28.20
2019-04-06T01:26:28.893Z,28.05
2019-04-06T01:27:06.932Z,27.53
2019-04-06T01:27:44.389Z,28.30
2019-04-06T01:28:21.634Z,28.47
2019-04-06T01:28:59.711Z,26.82
2019-04-06T01:29:37.487Z,27.30
2019-04-06T01:30:15.202Z,28.17
2019-04-06T01:30:52.776Z,27.60
2019-04-06T01:31:30.261Z,27.07
2019-04-06T01:32:08.383Z,27.10
2019-04-06T01:32:46.623Z,27.60
2019-04-06T01:33:42.658Z,28.90
2019-04-06T01:34:19.834Z,27.10
2019-04-06T01:34:57.105Z,27.00
2019-04-06T01:35:35.146Z,28.47
2019-04-06T01:36:12.473Z,28.80
2019-04-06T01:36:50.521Z,28.02
2019-04-06T01:37:28.323Z,28.10
2019-04-06T01:38:06.485Z,28.35
2019-04-06T01:38:43.748Z,27.33
2019-04-06T01:39:21.203Z,27.48
2019-04-06T01:39:58.289Z,27.33
2019-04-06T01:40:35.573Z,28.17
2019-04-06T01:41:12.833Z,28.57
2019-04-06T01:41:50.141Z,29.10
2019-04-06T01:42:28.050Z,28.70
2019-04-06T01:43:06.019Z,27.63
2019-04-06T01:43:43.753Z,26.87
2019-04-06T01:44:21.691Z,27.55
2019-04-06T01:44:59.148Z,26.80
2019-04-06T01:45:37.009Z,27.00
2019-04-06T01:46:14.406Z,27.37
2019-04-06T01:46:51.605Z,26.82
2019-04-06T01:47:28.854Z,25.80
2019-04-06T01:48:06.921Z,28.60
2019-04-06T01:48:43.769Z,27.02
2019-04-06T01:49:20.853Z,27.40
2019-04-06T01:49:58.253Z,25.33
2019-04-06T01:50:37.114Z,27.50
2019-04-06T01:51:14.825Z,27.10
2019-04-06T01:51:51.975Z,27.17
2019-04-06T01:52:30.727Z,26.10
2019-04-06T01:53:11.666Z,26.35
2019-04-06T01:53:49.657Z,27.77
2019-04-06T01:54:27.357Z,25.10
2019-04-06T01:55:05.473Z,26.77
2019-04-06T01:55:42.913Z,28.02
2019-04-06T01:56:21.073Z,26.30
2019-04-06T01:56:59.027Z,26.75
2019-04-06T01:57:37.679Z,26.45
2019-04-06T01:58:18.261Z,25.75
2019-04-06T01:58:55.838Z,25.93
2019-04-06T01:59:33.838Z,25.73
2019-04-06T02:00:13.039Z,25.10
2019-04-06T02:01:15.103Z,25.07
2019-04-06T02:02:11.729Z,26.62
2019-04-06T02:02:51.280Z,24.12
2019-04-06T02:03:29.097Z,26.20
2019-04-06T02:04:07.211Z,26.80
2019-04-06T02:04:45.037Z,26.70
2019-04-06T02:05:22.609Z,24.97
2019-04-06T02:06:00.099Z,25.37
2019-04-06T02:06:37.973Z,27.42
2019-04-06T02:07:15.857Z,26.52
2019-04-06T02:07:52.975Z,25.48
2019-04-06T02:08:30.610Z,26.07
2019-04-06T02:09:08.711Z,26.17
2019-04-06T02:09:45.893Z,25.13
2019-04-06T02:10:24.037Z,25.43
2019-04-06T02:11:02.349Z,26.80
2019-04-06T02:11:40.312Z,24.87
2019-04-06T02:12:18.199Z,25.15
2019-04-06T02:12:55.845Z,24.05
2019-04-06T02:13:33.929Z,25.90
2019-04-06T02:14:11.358Z,25.08
2019-04-06T02:14:49.496Z,23.87
2019-04-06T02:15:27.598Z,24.98
2019-04-06T02:16:05.730Z,24.63
2019-04-06T02:16:43.339Z,24.17
2019-04-06T02:17:20.156Z,24.93
2019-04-06T02:18:00.109Z,26.05
2019-04-06T02:18:37.999Z,24.40
2019-04-06T02:19:15.762Z,23.00
2019-04-06T02:19:53.649Z,25.50
2019-04-06T02:20:31.203Z,25.13
2019-04-06T02:21:08.609Z,25.10
2019-04-06T02:21:46.313Z,24.77
2019-04-06T02:22:23.656Z,24.73
2019-04-06T02:23:00.529Z,24.80
2019-04-06T02:23:37.993Z,24.30
2019-04-06T02:24:15.719Z,24.70
2019-04-06T02:24:52.699Z,24.47
2019-04-06T02:25:30.769Z,25.00
2019-04-06T02:26:08.766Z,25.68
2019-04-06T02:26:45.998Z,24.57
2019-04-06T02:27:42.743Z,24.00
2019-04-06T02:28:20.508Z,25.10
2019-04-06T02:28:57.611Z,24.70
2019-04-06T02:29:35.905Z,25.15
2019-04-06T02:30:47.977Z,25.70
2019-04-06T02:31:58.332Z,24.10
2019-04-06T02:32:41.589Z,24.40
2019-04-06T02:33:35.207Z,23.03
2019-04-06T02:34:29.448Z,24.07
2019-04-06T02:35:26.595Z,23.80
2019-04-06T02:36:32.480Z,23.62
2019-04-06T02:37:27.150Z,23.98
2019-04-06T02:38:20.090Z,24.50
2019-04-06T02:39:15.006Z,23.85
2019-04-06T02:40:07.459Z,24.00
2019-04-06T02:40:51.361Z,25.50
2019-04-06T02:41:47.690Z,24.07
2019-04-06T02:42:30.436Z,22.90
2019-04-06T02:43:11.290Z,24.60
2019-04-06T02:43:48.973Z,23.18
2019-04-06T02:44:26.178Z,24.33
2019-04-06T02:45:04.873Z,25.57
2019-04-06T02:45:42.282Z,25.23
2019-04-06T02:46:19.117Z,25.23
2019-04-06T02:46:56.491Z,24.25
2019-04-06T02:47:35.331Z,24.07
2019-04-06T02:48:12.980Z,25.85
2019-04-06T02:48:50.798Z,26.00
2019-04-06T02:49:29.868Z,23.90
2019-04-06T02:50:08.731Z,25.15
2019-04-06T02:50:47.375Z,25.20
2019-04-06T02:51:24.669Z,24.10
2019-04-06T02:52:02.267Z,24.27
2019-04-06T02:52:39.921Z,24.85
2019-04-06T02:53:17.195Z,26.17
2019-04-06T02:53:54.625Z,24.30
2019-04-06T02:54:32.179Z,25.20
2019-04-06T02:55:10.052Z,26.03
2019-04-06T02:55:48.005Z,25.80
2019-04-06T02:56:25.928Z,26.25
2019-04-06T02:57:03.543Z,26.37
2019-04-06T02:57:41.137Z,25.68
2019-04-06T02:58:19.426Z,23.55
2019-04-06T02:58:57.512Z,24.57
2019-04-06T02:59:35.774Z,25.35
2019-04-06T03:00:14.390Z,26.00
2019-04-06T03:00:53.168Z,25.43
2019-04-06T03:01:30.638Z,25.13
2019-04-06T03:02:08.600Z,24.95
2019-04-06T03:02:46.497Z,23.17
2019-04-06T03:03:27.266Z,24.60
2019-04-06T03:04:05.576Z,24.07
2019-04-06T03:04:43.618Z,24.65
2019-04-06T03:05:21.671Z,25.75
2019-04-06T03:05:59.366Z,25.17
2019-04-06T03:06:37.300Z,23.27
2019-04-06T03:07:15.556Z,23.92
2019-04-06T03:07:52.791Z,24.82
2019-04-06T03:08:30.680Z,25.90
2019-04-06T03:09:11.504Z,25.62
2019-04-06T03:09:48.382Z,25.30
2019-04-06T03:10:25.956Z,23.80
2019-04-06T03:11:03.803Z,24.67
2019-04-06T03:11:40.827Z,24.37
2019-04-06T03:12:18.486Z,26.80
2019-04-06T03:12:56.891Z,23.02
2019-04-06T03:13:35.318Z,26.17
2019-04-06T03:14:13.330Z,24.83
2019-04-06T03:14:51.554Z,24.90
2019-04-06T03:15:29.512Z,26.10
2019-04-06T03:16:06.754Z,25.17
2019-04-06T03:16:44.634Z,24.67
2019-04-06T03:17:22.199Z,23.47
2019-04-06T03:18:00.019Z,23.70
2019-04-06T03:18:37.806Z,25.17
2019-04-06T03:19:15.283Z,24.20
2019-04-06T03:19:53.043Z,25.05
2019-04-06T03:20:30.773Z,23.50
2019-04-06T03:21:11.049Z,25.48
2019-04-06T03:21:48.828Z,25.23
2019-04-06T03:22:26.317Z,25.93
2019-04-06T03:23:03.954Z,24.07
2019-04-06T03:23:50.210Z,25.62
2019-04-06T03:24:21.714Z,25.20
2019-04-06T03:24:59.527Z,25.20
2019-04-06T03:25:56.439Z,26.85
2019-04-06T03:26:33.588Z,25.07
2019-04-06T03:27:10.960Z,26.33
2019-04-06T03:27:50.253Z,25.77
2019-04-06T03:28:29.732Z,26.60
2019-04-06T03:29:07.833Z,25.10
2019-04-06T03:29:56.449Z,25.15
2019-04-06T03:30:24.993Z,27.17
2019-04-06T03:31:02.648Z,27.10
2019-04-06T03:31:46.042Z,26.82
2019-04-06T03:32:23.305Z,26.10
2019-04-06T03:33:01.246Z,27.48
2019-04-06T03:33:39.391Z,26.87
2019-04-06T03:34:20.451Z,27.02
2019-04-06T03:34:56.179Z,27.53
2019-04-06T03:35:34.369Z,26.30
2019-04-06T03:36:12.097Z,27.13
2019-04-06T03:36:49.999Z,27.35
2019-04-06T03:37:27.372Z,27.03
2019-04-06T03:38:05.278Z,26.93
2019-04-06T03:38:43.063Z,28.35
2019-04-06T03:39:21.135Z,26.27
2019-04-06T03:39:58.842Z,27.15
2019-04-06T03:40:36.639Z,26.12
2019-04-06T03:41:14.354Z,25.55
2019-04-06T03:41:51.563Z,26.90
2019-04-06T03:42:29.239Z,26.33
2019-04-06T03:43:06.177Z,27.53
2019-04-06T03:43:43.962Z,25.88
2019-04-06T03:44:22.878Z,28.30
2019-04-06T03:45:00.149Z,26.17
2019-04-06T03:45:37.935Z,26.68
2019-04-06T03:46:15.796Z,26.97
2019-04-06T03:46:52.945Z,27.35
2019-04-06T03:47:30.877Z,26.87
2019-04-06T03:48:08.361Z,27.90
2019-04-06T03:48:45.854Z,27.50
2019-04-06T03:49:22.420Z,28.43
2019-04-06T03:50:00.304Z,27.97
2019-04-06T03:50:38.498Z,27.58
2019-04-06T03:51:16.575Z,28.35
2019-04-06T03:51:56.678Z,27.47
2019-04-06T03:52:33.581Z,28.07
2019-04-06T03:53:10.995Z,27.87
2019-04-06T03:53:48.711Z,27.50
2019-04-06T03:54:25.607Z,27.30
2019-04-06T03:55:02.815Z,27.73
2019-04-06T03:55:40.421Z,28.57
2019-04-06T03:56:17.941Z,28.43
2019-04-06T03:56:55.522Z,28.70
2019-04-06T03:57:33.125Z,28.20
2019-04-06T03:58:10.958Z,26.93
2019-04-06T03:58:48.470Z,29.25
2019-04-06T03:59:26.378Z,27.95
2019-04-06T04:00:04.467Z,28.10
2019-04-06T04:00:41.927Z,27.62
2019-04-06T04:01:19.448Z,27.20
2019-04-06T04:01:57.251Z,28.37
2019-04-06T04:02:35.243Z,27.90
2019-04-06T04:03:12.763Z,28.63
2019-04-06T04:03:50.127Z,28.37
2019-04-06T04:04:27.731Z,28.75
2019-04-06T04:05:08.619Z,29.20
2019-04-06T04:05:47.515Z,30.00
2019-04-06T04:06:25.028Z,30.43
2019-04-06T04:07:03.028Z,29.85
2019-04-06T04:07:40.461Z,29.10
2019-04-06T04:08:17.929Z,27.50
2019-04-06T04:08:55.330Z,28.75
2019-04-06T04:09:32.788Z,27.87
2019-04-06T04:10:12.510Z,28.90
2019-04-06T04:10:50.220Z,29.20
2019-04-06T04:11:28.365Z,27.67
2019-04-06T04:12:08.219Z,27.37
2019-04-06T04:12:46.185Z,29.85
2019-04-06T04:13:24.257Z,28.55
2019-04-06T04:14:02.205Z,28.70
2019-04-06T04:14:39.909Z,28.02
2019-04-06T04:15:17.300Z,28.85
2019-04-06T04:15:57.179Z,29.67
2019-04-06T04:16:34.631Z,29.70
2019-04-06T04:17:12.164Z,28.80
2019-04-06T04:17:49.377Z,28.67
2019-04-06T04:18:27.410Z,29.05
2019-04-06T04:19:04.704Z,27.45
2019-04-06T04:19:42.187Z,27.80
2019-04-06T04:20:19.797Z,27.97
2019-04-06T04:20:57.392Z,28.10
2019-04-06T04:21:35.601Z,26.57
2019-04-06T04:22:13.483Z,27.93
2019-04-06T04:22:51.811Z,27.93
2019-04-06T04:23:36.045Z,28.92
2019-04-06T04:24:13.951Z,27.58
2019-04-06T04:24:51.476Z,27.73
2019-04-06T04:25:29.257Z,29.35
2019-04-06T04:26:06.895Z,27.60
2019-04-06T04:26:44.701Z,29.02
2019-04-06T04:27:29.882Z,30.10
2019-04-06T04:28:01.751Z,29.00
2019-04-06T04:28:39.347Z,27.67
2019-04-06T04:29:17.095Z,28.47
2019-04-06T04:29:55.467Z,27.07
2019-04-06T04:30:34.517Z,27.50
2019-04-06T04:31:12.918Z,29.12
2019-04-06T04:31:50.809Z,28.05
2019-04-06T04:32:28.897Z,26.42
2019-04-06T04:33:07.015Z,28.90
2019-04-06T04:33:44.212Z,27.37
2019-04-06T04:34:22.279Z,29.05
2019-04-06T04:34:59.569Z,28.17
2019-04-06T04:35:37.514Z,29.02
2019-04-06T04:36:15.073Z,28.57
2019-04-06T04:36:52.329Z,27.73
2019-04-06T04:37:30.156Z,27.13
2019-04-06T04:38:08.291Z,28.25
2019-04-06T04:38:46.192Z,28.27
2019-04-06T04:39:26.277Z,28.95
2019-04-06T04:40:03.955Z,29.48
2019-04-06T04:40:41.704Z,29.60
2019-04-06T04:41:21.956Z,29.50
2019-04-06T04:41:59.835Z,29.25
2019-04-06T04:42:37.337Z,28.97
2019-04-06T04:43:14.580Z,28.15
2019-04-06T04:43:52.393Z,28.42
2019-04-06T04:44:29.973Z,27.77
2019-04-06T04:45:07.204Z,28.25
2019-04-06T04:45:45.296Z,28.20
2019-04-06T04:46:22.153Z,28.67
2019-04-06T04:47:00.174Z,29.63
2019-04-06T04:47:38.177Z,28.60
2019-04-06T04:48:15.767Z,29.37
2019-04-06T04:48:53.520Z,28.65
2019-04-06T04:49:31.347Z,28.07
2019-04-06T04:50:09.314Z,28.70
2019-04-06T04:50:47.136Z,28.97
2019-04-06T04:51:24.541Z,29.63
2019-04-06T04:52:01.301Z,27.77
2019-04-06T04:52:38.502Z,29.40
2019-04-06T04:53:16.058Z,27.42
2019-04-06T04:53:53.835Z,28.80
2019-04-06T04:54:31.534Z,27.95
2019-04-06T04:55:09.494Z,28.02
2019-04-06T04:55:47.282Z,27.98
2019-04-06T04:56:25.497Z,29.40
2019-04-06T04:57:03.222Z,28.85
2019-04-06T04:57:42.006Z,29.95
2019-04-06T04:58:20.220Z,28.80
2019-04-06T04:58:58.000Z,28.17
2019-04-06T04:59:35.910Z,29.10
2019-04-06T05:00:14.398Z,28.45
2019-04-06T05:00:55.125Z,28.45
2019-04-06T05:01:36.525Z,25.77
2019-04-06T05:02:14.406Z,29.23
2019-04-06T05:02:52.474Z,28.42
2019-04-06T05:03:30.082Z,27.60
2019-04-06T05:04:07.974Z,28.40
2019-04-06T05:04:46.582Z,28.10
2019-04-06T05:05:24.052Z,27.20
2019-04-06T05:06:02.060Z,27.73
2019-04-06T05:06:39.456Z,28.20
2019-04-06T05:07:16.846Z,28.00
2019-04-06T05:07:54.929Z,25.87
2019-04-06T05:08:32.410Z,28.95
2019-04-06T05:09:09.951Z,28.23
2019-04-06T05:09:48.043Z,30.12
2019-04-06T05:10:26.015Z,29.52
2019-04-06T05:11:03.509Z,27.82
2019-04-06T05:11:41.113Z,29.42
2019-04-06T05:12:18.358Z,28.87
2019-04-06T05:12:56.236Z,29.55
2019-04-06T05:13:36.193Z,28.87
2019-04-06T05:15:00.913Z,28.05
2019-04-06T05:16:23.027Z,26.50
2019-04-06T05:17:00.416Z,25.48
2019-04-06T05:17:37.930Z,27.23
2019-04-06T05:18:17.932Z,27.93
2019-04-06T05:18:55.620Z,29.10
2019-04-06T05:19:36.883Z,26.82
2019-04-06T05:20:14.225Z,27.25
2019-04-06T05:20:53.417Z,28.70
2019-04-06T05:21:31.908Z,27.53
2019-04-06T05:22:09.820Z,28.40
2019-04-06T05:22:47.298Z,27.75
2019-04-06T05:23:24.342Z,27.83
2019-04-06T05:24:02.536Z,27.20
2019-04-06T05:24:40.404Z,29.07
2019-04-06T05:25:17.789Z,29.15
2019-04-06T05:25:55.220Z,28.15
2019-04-06T05:26:37.373Z,28.40
2019-04-06T05:27:11.614Z,28.62
2019-04-06T05:27:52.714Z,27.30
2019-04-06T05:28:28.660Z,28.25
2019-04-06T05:29:05.801Z,28.85
2019-04-06T05:29:43.612Z,28.00
2019-04-06T05:30:20.785Z,29.25
2019-04-06T05:30:58.313Z,29.72
2019-04-06T05:31:38.068Z,28.30
2019-04-06T05:32:16.163Z,30.52
2019-04-06T05:32:54.120Z,29.10
2019-04-06T05:33:32.252Z,29.90
2019-04-06T05:34:10.000Z,29.30
2019-04-06T05:34:47.499Z,30.92
2019-04-06T05:35:25.400Z,28.93
2019-04-06T05:36:03.356Z,28.92
2019-04-06T05:36:40.970Z,27.30
2019-04-06T05:37:18.330Z,29.87
2019-04-06T05:37:56.070Z,27.52
2019-04-06T05:38:33.864Z,29.23
2019-04-06T05:39:10.988Z,27.67
2019-04-06T05:39:48.143Z,30.57
2019-04-06T05:40:25.790Z,28.83
2019-04-06T05:41:03.735Z,28.00
2019-04-06T05:41:41.193Z,27.90
2019-04-06T05:42:19.048Z,28.70
2019-04-06T05:42:56.361Z,28.83
2019-04-06T05:43:34.336Z,27.60
2019-04-06T05:44:12.136Z,27.77
2019-04-06T05:44:50.144Z,28.67
2019-04-06T05:45:28.180Z,27.07
2019-04-06T05:46:06.127Z,27.27
2019-04-06T05:46:44.238Z,28.47
2019-04-06T05:47:22.799Z,27.50
2019-04-06T05:47:59.682Z,28.23
2019-04-06T05:48:37.013Z,28.27
2019-04-06T05:49:15.263Z,28.10
2019-04-06T05:49:53.264Z,28.80
2019-04-06T05:50:30.965Z,27.05
2019-04-06T05:51:08.612Z,28.65
2019-04-06T05:51:45.767Z,28.27
2019-04-06T05:52:23.472Z,27.20
2019-04-06T05:53:01.568Z,28.47
2019-04-06T05:53:39.431Z,27.70
2019-04-06T05:54:16.704Z,27.30
2019-04-06T05:54:53.388Z,27.10
2019-04-06T05:55:31.098Z,27.70
2019-04-06T05:56:08.861Z,27.83
2019-04-06T05:56:45.794Z,27.63
2019-04-06T05:57:23.083Z,28.37
2019-04-06T05:58:04.126Z,27.97
2019-04-06T05:58:41.277Z,27.30
2019-04-06T05:59:18.327Z,28.63
2019-04-06T05:59:55.929Z,26.87
2019-04-06T06:00:34.717Z,27.40
2019-04-06T06:01:12.341Z,27.90
2019-04-06T06:01:49.886Z,26.17
2019-04-06T06:02:27.767Z,27.37
2019-04-06T06:03:05.197Z,27.30
2019-04-06T06:03:41.737Z,27.20
2019-04-06T06:04:20.003Z,27.60
2019-04-06T06:05:00.845Z,27.40
2019-04-06T06:05:40.317Z,26.20
2019-04-06T06:06:16.071Z,27.27
2019-04-06T06:06:54.106Z,26.50
2019-04-06T06:07:31.969Z,27.17
2019-04-06T06:08:09.252Z,26.40
2019-04-06T06:08:46.909Z,25.80
2019-04-06T06:09:24.803Z,27.30
2019-04-06T06:10:05.051Z,27.40
2019-04-06T06:10:42.597Z,27.37
2019-04-06T06:11:20.037Z,27.10
2019-04-06T06:11:59.099Z,25.90
2019-04-06T06:12:36.826Z,26.07
2019-04-06T06:13:14.340Z,26.30
2019-04-06T06:13:53.516Z,26.07
2019-04-06T06:14:31.382Z,26.87
2019-04-06T06:15:09.212Z,26.77
2019-04-06T06:15:47.054Z,25.90
2019-04-06T06:16:24.914Z,27.67
2019-04-06T06:17:02.544Z,26.37
2019-04-06T06:17:40.016Z,26.10
2019-04-06T06:18:25.869Z,26.20
2019-04-06T06:18:56.273Z,27.37
2019-04-06T06:19:33.465Z,25.10
2019-04-06T06:20:11.708Z,26.23
2019-04-06T06:20:49.509Z,26.37
2019-04-06T06:21:27.693Z,26.50
2019-04-06T06:22:05.014Z,27.27
2019-04-06T06:22:42.225Z,26.83
2019-04-06T06:23:19.929Z,26.77
2019-04-06T06:23:57.522Z,27.47
2019-04-06T06:24:34.845Z,26.27
2019-04-06T06:25:12.922Z,27.97
2019-04-06T06:25:50.062Z,27.30
2019-04-06T06:26:27.868Z,26.53
2019-04-06T06:27:04.784Z,27.30
2019-04-06T06:27:42.701Z,27.23
2019-04-06T06:28:19.417Z,28.43
2019-04-06T06:28:56.776Z,26.83
2019-04-06T06:29:34.395Z,28.20
2019-04-06T06:30:12.891Z,27.07
2019-04-06T06:30:50.062Z,27.77
2019-04-06T06:31:27.997Z,26.70
2019-04-06T06:32:06.296Z,25.37
2019-04-06T06:32:43.705Z,26.93
2019-04-06T06:33:21.295Z,26.37
2019-04-06T06:33:58.676Z,26.27
2019-04-06T06:34:36.238Z,26.67
2019-04-06T06:35:13.637Z,26.50
2019-04-06T06:35:51.433Z,26.70
2019-04-06T06:36:28.930Z,27.50
2019-04-06T06:37:07.042Z,27.87
2019-04-06T06:37:45.189Z,26.37
2019-04-06T06:38:22.599Z,27.10
2019-04-06T06:39:00.852Z,27.10
2019-04-06T06:39:38.152Z,25.77
2019-04-06T06:40:16.211Z,27.47
2019-04-06T06:40:53.575Z,25.03
2019-04-06T06:41:31.353Z,27.57
2019-04-06T06:42:08.594Z,27.60
2019-04-06T06:42:46.086Z,26.43
2019-04-06T06:43:22.940Z,27.90
2019-04-06T06:44:00.291Z,26.67
2019-04-06T06:44:40.597Z,28.37
2019-04-06T06:45:18.222Z,27.43
2019-04-06T06:45:55.161Z,26.47
2019-04-06T06:46:33.368Z,27.90
2019-04-06T06:47:13.025Z,26.80
2019-04-06T06:48:09.017Z,26.27
2019-04-06T06:48:46.370Z,25.97
2019-04-06T06:49:24.096Z,27.17
2019-04-06T06:50:01.413Z,27.47
2019-04-06T06:50:38.959Z,26.07
2019-04-06T06:51:16.764Z,26.50
2019-04-06T06:51:54.379Z,27.20
2019-04-06T06:52:32.142Z,28.00
2019-04-06T06:53:09.981Z,26.17
2019-04-06T06:53:47.531Z,27.93
2019-04-06T06:54:24.871Z,25.17
2019-04-06T06:55:02.299Z,26.90
2019-04-06T06:55:40.075Z,27.73
2019-04-06T06:56:17.906Z,27.70
2019-04-06T06:56:55.667Z,26.50
2019-04-06T06:57:33.280Z,26.73
2019-04-06T06:58:10.941Z,27.13
2019-04-06T06:58:48.394Z,26.90
2019-04-06T06:59:26.200Z,26.90
2019-04-06T07:00:03.342Z,26.40
2019-04-06T07:00:41.126Z,27.00
2019-04-06T07:01:18.033Z,26.93
2019-04-06T07:01:55.365Z,27.77
2019-04-06T07:02:33.221Z,26.90
2019-04-06T07:03:10.970Z,26.97
2019-04-06T07:03:48.754Z,26.13
2019-04-06T07:04:26.549Z,27.27
2019-04-06T07:05:04.566Z,25.93
2019-04-06T07:05:42.369Z,28.57
2019-04-06T07:06:20.358Z,28.20
2019-04-06T07:06:57.866Z,26.00
2019-04-06T07:07:35.452Z,27.20
2019-04-06T07:08:13.054Z,27.30
2019-04-06T07:08:50.367Z,26.40
2019-04-06T07:09:28.035Z,26.40
2019-04-06T07:10:06.545Z,27.60
2019-04-06T07:10:43.455Z,26.87
2019-04-06T07:11:20.721Z,27.50
2019-04-06T07:11:57.689Z,28.00
2019-04-06T07:12:34.679Z,27.83
2019-04-06T07:13:12.984Z,28.00
2019-04-06T07:13:50.531Z,27.43
2019-04-06T07:14:30.590Z,29.03
2019-04-06T07:15:08.645Z,27.50
2019-04-06T07:15:45.548Z,26.90
2019-04-06T07:16:22.632Z,26.73
2019-04-06T07:17:00.280Z,28.17
2019-04-06T07:17:37.832Z,27.07
2019-04-06T07:18:15.414Z,27.90
2019-04-06T07:18:52.953Z,26.00
2019-04-06T07:19:29.913Z,27.83
2019-04-06T07:20:07.653Z,29.07
2019-04-06T07:20:44.865Z,27.60
2019-04-06T07:21:22.028Z,27.70
2019-04-06T07:22:02.266Z,26.80
2019-04-06T07:22:41.280Z,27.90
2019-04-06T07:23:18.987Z,26.90
2019-04-06T07:23:59.263Z,26.80
2019-04-06T07:24:36.153Z,26.93
2019-04-06T07:25:13.821Z,25.63
2019-04-06T07:25:57.721Z,26.97
2019-04-06T07:26:29.837Z,27.17
2019-04-06T07:27:07.550Z,26.90
2019-04-06T07:27:45.338Z,26.03
2019-04-06T07:28:22.885Z,27.40
2019-04-06T07:29:00.307Z,27.90
2019-04-06T07:29:37.926Z,28.23
2019-04-06T07:30:15.658Z,25.60
2019-04-06T07:30:53.622Z,26.83
2019-04-06T07:31:31.308Z,26.20
2019-04-06T07:32:09.344Z,26.53
2019-04-06T07:32:46.941Z,27.00
2019-04-06T07:33:24.685Z,27.13
2019-04-06T07:34:02.329Z,25.40
2019-04-06T07:34:40.163Z,26.90
2019-04-06T07:35:17.656Z,27.60
2019-04-06T07:35:55.153Z,26.23
2019-04-06T07:36:32.367Z,26.47
2019-04-06T07:37:10.072Z,26.03
2019-04-06T07:37:47.389Z,27.40
2019-04-06T07:38:25.210Z,25.80
2019-04-06T07:39:04.199Z,25.20
2019-04-06T07:39:41.309Z,28.20
2019-04-06T07:40:19.177Z,28.10
2019-04-06T07:40:56.799Z,27.40
2019-04-06T07:41:33.988Z,27.17
2019-04-06T07:42:11.685Z,25.73
2019-04-06T07:42:51.875Z,27.30
2019-04-06T07:43:29.743Z,27.83
2019-04-06T07:44:06.646Z,27.77
2019-04-06T07:44:44.293Z,28.50
2019-04-06T07:45:21.667Z,27.03
2019-04-06T07:45:59.001Z,26.60
2019-04-06T07:46:36.265Z,27.40
2019-04-06T07:47:13.494Z,27.03
2019-04-06T07:47:50.734Z,27.27
2019-04-06T07:48:28.211Z,27.43
2019-04-06T07:49:09.290Z,26.53
2019-04-06T07:49:46.350Z,27.37
2019-04-06T07:50:24.439Z,26.10
2019-04-06T07:51:02.385Z,26.43
2019-04-06T07:51:40.449Z,27.50
2019-04-06T07:52:18.129Z,27.47
2019-04-06T07:52:55.420Z,28.07
2019-04-06T07:53:36.013Z,29.00
2019-04-06T07:54:13.676Z,25.20
2019-04-06T07:54:53.981Z,28.13
2019-04-06T07:55:31.827Z,28.10
2019-04-06T07:56:09.707Z,27.10
2019-04-06T07:56:47.627Z,26.87
2019-04-06T07:57:25.380Z,25.63
2019-04-06T07:58:02.552Z,26.67
2019-04-06T07:58:48.665Z,26.10
2019-04-06T07:59:19.610Z,26.60
2019-04-06T07:59:57.149Z,25.33
2019-04-06T08:00:34.303Z,27.20
2019-04-06T08:01:12.045Z,26.33
2019-04-06T08:01:49.610Z,26.00
2019-04-06T08:02:27.124Z,27.20
2019-04-06T08:03:05.935Z,26.53
2019-04-06T08:03:42.857Z,27.20
2019-04-06T08:04:20.002Z,27.67
2019-04-06T08:04:57.477Z,28.10
2019-04-06T08:05:35.067Z,26.17
2019-04-06T08:06:12.742Z,25.47
2019-04-06T08:06:50.005Z,28.03
2019-04-06T08:07:27.445Z,26.17
2019-04-06T08:08:07.966Z,25.33
2019-04-06T08:08:44.558Z,27.50
2019-04-06T08:09:22.469Z,26.70
2019-04-06T08:09:59.997Z,26.27
2019-04-06T08:10:37.010Z,26.53
2019-04-06T08:11:14.313Z,26.73
2019-04-06T08:11:52.339Z,26.07
2019-04-06T08:12:29.801Z,26.77
2019-04-06T08:13:13.260Z,26.50
2019-04-06T08:13:51.510Z,25.90
2019-04-06T08:14:28.265Z,25.53
2019-04-06T08:15:06.407Z,26.37
2019-04-06T08:15:43.821Z,25.90
2019-04-06T08:16:21.281Z,26.10
2019-04-06T08:16:58.549Z,26.33